createdAt,value
2022-12-11T00:00:22.700Z,97322.69
2022-12-11T00:03:15.442Z,97315.84
2022-12-11T00:05:43.773Z,97321.88
2022-12-11T00:08:12.073Z,97319.31
2022-12-11T00:10:38.944Z,97317.63
2022-12-11T00:13:06.016Z,97317.63
2022-12-11T00:15:32.850Z,97317.66
2022-12-11T00:18:00.064Z,97310.72
2022-12-11T00:20:27.225Z,97308.13
2022-12-11T00:22:54.403Z,97299.50
2022-12-11T00:25:21.247Z,97301.25
2022-12-11T00:27:48.396Z,97310.72
2022-12-11T00:30:15.338Z,97301.25
2022-12-11T00:32:43.212Z,97301.28
2022-12-11T00:35:10.807Z,97306.47
2022-12-11T00:37:38.165Z,97300.50
2022-12-11T00:40:05.481Z,97297.06
2022-12-11T00:42:32.565Z,97290.13
2022-12-11T00:44:59.312Z,97284.09
2022-12-11T00:47:26.422Z,97288.38
2022-12-11T00:49:53.276Z,97292.78
2022-12-11T00:52:20.425Z,97291.03
2022-12-11T00:54:47.283Z,97285.84
2022-12-11T00:57:14.422Z,97285.84
2022-12-11T00:59:41.249Z,97291.88
2022-12-11T01:02:08.435Z,97295.31
2022-12-11T01:04:36.887Z,97303.03
2022-12-11T01:07:03.985Z,97300.44
2022-12-11T01:09:49.390Z,97297.91
2022-12-11T01:12:16.552Z,97294.44
2022-12-11T01:14:43.349Z,97288.38
2022-12-11T01:17:11.382Z,97276.34
2022-12-11T01:19:38.309Z,97271.13
2022-12-11T01:22:05.488Z,97260.75
2022-12-11T01:24:32.325Z,97261.75
2022-12-11T01:26:59.404Z,97262.56
2022-12-11T01:29:26.256Z,97260.81
2022-12-11T01:31:53.350Z,97262.44
2022-12-11T01:34:20.172Z,97259.81
2022-12-11T01:36:47.188Z,97246.88
2022-12-11T01:39:14.032Z,97245.09
2022-12-11T01:41:41.176Z,97241.59
2022-12-11T01:44:27.896Z,97242.50
2022-12-11T01:46:55.192Z,97238.16
2022-12-11T01:49:27.165Z,97233.03
2022-12-11T01:52:16.342Z,97215.03
2022-12-11T01:54:43.604Z,97217.53
2022-12-11T01:57:13.418Z,97211.63
2022-12-11T01:59:43.578Z,97207.44
2022-12-11T02:02:26.649Z,97202.31
2022-12-11T02:04:53.667Z,97195.53
2022-12-11T02:07:20.908Z,97188.59
2022-12-11T02:09:48.628Z,97185.19
2022-12-11T02:12:26.468Z,97170.50
2022-12-11T02:14:59.145Z,97177.53
2022-12-11T02:18:04.821Z,97169.06
2022-12-11T02:20:41.335Z,97175.13
2022-12-11T02:23:32.701Z,97162.22
2022-12-11T02:26:21.281Z,97163.13
2022-12-11T02:28:54.496Z,97160.56
2022-12-11T02:31:38.363Z,97158.88
2022-12-11T02:34:29.421Z,97154.59
2022-12-11T02:37:03.157Z,97152.00
2022-12-11T02:39:33.501Z,97156.31
2022-12-11T02:42:02.098Z,97161.44
2022-12-11T02:44:33.566Z,97159.69
2022-12-11T02:47:03.388Z,97151.13
2022-12-11T02:49:32.524Z,97157.09
2022-12-11T02:52:02.868Z,97157.09
2022-12-11T02:54:33.423Z,97154.53
2022-12-11T02:57:17.295Z,97158.84
2022-12-11T02:59:46.657Z,97158.06
2022-12-11T03:02:14.510Z,97158.13
2022-12-11T03:04:42.929Z,97142.56
2022-12-11T03:07:17.289Z,97122.72
2022-12-11T03:09:46.637Z,97119.28
2022-12-11T03:12:17.440Z,97116.78
2022-12-11T03:14:45.291Z,97114.13
2022-12-11T03:17:48.946Z,97114.22
2022-12-11T03:20:24.872Z,97112.44
2022-12-11T03:23:14.844Z,97101.25
2022-12-11T03:25:51.803Z,97103.84
2022-12-11T03:28:36.074Z,97099.50
2022-12-11T03:31:09.840Z,97097.78
2022-12-11T03:33:42.226Z,97081.41
2022-12-11T03:36:23.849Z,97087.53
2022-12-11T03:38:56.218Z,97086.63
2022-12-11T03:41:26.258Z,97078.88
2022-12-11T03:43:57.188Z,97078.94
2022-12-11T03:49:26.776Z,97064.34
2022-12-11T03:51:56.979Z,97065.19
2022-12-11T03:54:24.908Z,97062.69
2022-12-11T03:56:55.965Z,97062.69
2022-12-11T03:59:22.907Z,97056.72
2022-12-11T04:01:50.584Z,97049.88
2022-12-11T04:04:17.503Z,97051.66
2022-12-11T04:06:44.778Z,97043.03
2022-12-11T04:09:11.641Z,97043.88
2022-12-11T04:11:39.667Z,97040.41
2022-12-11T04:14:28.282Z,97036.91
2022-12-11T04:16:55.496Z,97031.84
2022-12-11T04:19:42.229Z,97033.56
2022-12-11T04:22:30.501Z,97029.31
2022-12-11T04:24:57.389Z,97018.97
2022-12-11T04:27:43.634Z,97015.53
2022-12-11T04:30:15.747Z,97015.53
2022-12-11T04:32:43.322Z,97010.38
2022-12-11T04:35:11.629Z,97005.16
2022-12-11T04:37:39.282Z,97002.56
2022-12-11T04:40:09.352Z,96998.28
2022-12-11T04:42:36.525Z,97004.31
2022-12-11T04:45:04.900Z,96997.44
2022-12-11T04:47:32.317Z,96993.16
2022-12-11T04:49:59.096Z,96994.88
2022-12-11T04:52:26.187Z,96987.13
2022-12-11T04:54:52.969Z,97000.97
2022-12-11T04:57:21.688Z,96984.59
2022-12-11T04:59:49.062Z,96988.03
2022-12-11T05:02:17.126Z,96981.19
2022-12-11T05:04:43.997Z,96977.72
2022-12-11T05:07:11.160Z,96975.19
2022-12-11T05:09:38.132Z,96980.31
2022-12-11T05:12:05.309Z,96975.13
2022-12-11T05:14:32.745Z,96976.88
2022-12-11T05:16:59.977Z,96981.94
2022-12-11T05:19:27.225Z,96988.00
2022-12-11T05:21:54.418Z,96990.56
2022-12-11T05:24:21.292Z,96983.69
2022-12-11T05:26:48.390Z,96990.56
2022-12-11T05:29:15.214Z,96979.34
2022-12-11T05:31:42.582Z,96984.59
2022-12-11T05:34:09.525Z,96970.75
2022-12-11T05:36:36.808Z,96974.19
2022-12-11T05:39:04.175Z,96963.00
2022-12-11T05:41:32.943Z,96959.53
2022-12-11T05:44:00.393Z,96957.81
2022-12-11T05:46:29.908Z,96958.63
2022-12-11T05:49:01.758Z,96954.34
2022-12-11T05:51:30.256Z,96950.91
2022-12-11T05:53:57.772Z,96956.94
2022-12-11T05:56:28.142Z,96945.00
2022-12-11T05:58:56.224Z,96943.25
2022-12-11T06:01:37.943Z,96946.75
2022-12-11T06:04:06.851Z,96939.84
2022-12-11T06:06:34.607Z,96939.03
2022-12-11T06:09:02.209Z,96929.53
2022-12-11T06:11:31.133Z,96933.00
2022-12-11T06:13:58.481Z,96931.22
2022-12-11T06:16:26.004Z,96933.88
2022-12-11T06:18:57.017Z,96931.25
2022-12-11T06:21:31.110Z,96919.19
2022-12-11T06:24:02.055Z,96921.75
2022-12-11T06:26:29.955Z,96931.28
2022-12-11T06:28:56.840Z,96929.63
2022-12-11T06:31:24.001Z,96930.50
2022-12-11T06:33:50.922Z,96940.00
2022-12-11T06:36:20.382Z,96933.16
2022-12-11T06:38:47.974Z,96926.22
2022-12-11T06:41:15.935Z,96918.44
2022-12-11T06:43:43.475Z,96921.03
2022-12-11T06:46:13.261Z,96916.72
2022-12-11T06:48:42.392Z,96912.34
2022-12-11T06:51:12.585Z,96900.31
2022-12-11T06:53:40.089Z,96899.41
2022-12-11T06:56:13.653Z,96914.03
2022-12-11T06:58:41.896Z,96905.38
2022-12-11T07:01:27.424Z,96902.75
2022-12-11T07:03:55.749Z,96898.38
2022-12-11T07:06:23.579Z,96896.69
2022-12-11T07:08:50.893Z,96902.66
2022-12-11T07:11:19.490Z,96897.47
2022-12-11T07:13:46.833Z,96895.69
2022-12-11T07:16:15.908Z,96899.13
2022-12-11T07:18:51.897Z,96889.53
2022-12-11T07:21:20.416Z,96897.22
2022-12-11T07:23:48.054Z,96900.66
2022-12-11T07:26:18.126Z,96900.56
2022-12-11T07:28:45.474Z,96896.97
2022-12-11T07:31:19.097Z,96901.19
2022-12-11T07:33:46.273Z,96901.16
2022-12-11T07:36:15.241Z,96895.06
2022-12-11T07:38:42.328Z,96892.44
2022-12-11T07:41:12.312Z,96888.06
2022-12-11T07:43:39.237Z,96886.19
2022-12-11T07:46:09.402Z,96870.66
2022-12-11T07:48:37.201Z,96871.56
2022-12-11T07:51:27.662Z,96883.59
2022-12-11T07:54:16.762Z,96884.41
2022-12-11T07:56:46.519Z,96885.25
2022-12-11T07:59:17.032Z,96886.84
2022-12-11T08:01:44.418Z,96886.66
2022-12-11T08:04:12.768Z,96893.56
2022-12-11T08:06:40.381Z,96886.59
2022-12-11T08:09:11.928Z,96874.47
2022-12-11T08:11:41.079Z,96877.94
2022-12-11T08:14:08.920Z,96882.19
2022-12-11T10:40:30.859Z,96854.94
2022-12-11T10:42:58.193Z,96860.66
2022-12-11T10:45:25.115Z,96868.25
2022-12-11T10:48:06.766Z,96867.81
2022-12-11T10:50:33.782Z,96874.19
2022-12-11T10:53:00.885Z,96874.13
2022-12-11T10:55:35.062Z,96871.66
2022-12-11T10:58:05.890Z,96864.06
2022-12-11T11:00:42.698Z,96871.97
2022-12-11T11:03:36.737Z,96870.19
2022-12-11T11:06:18.895Z,96856.09
2022-12-11T11:08:49.043Z,96852.50
2022-12-11T11:11:27.181Z,96848.16
2022-12-11T11:14:20.393Z,96849.13
2022-12-11T11:16:50.060Z,96842.31
2022-12-11T11:19:22.671Z,96830.03
2022-12-11T11:21:56.557Z,96828.31
2022-12-11T11:24:40.281Z,96835.56
2022-12-11T11:27:31.060Z,96843.41
2022-12-11T11:30:08.567Z,96845.16
2022-12-11T11:32:39.914Z,96858.69
2022-12-11T11:35:13.041Z,96856.69
2022-12-11T11:37:42.655Z,96857.41
2022-12-11T11:40:25.864Z,96865.84
2022-12-11T11:43:06.236Z,96878.38
2022-12-11T11:45:55.813Z,96887.75
2022-12-11T11:48:22.897Z,96897.34
2022-12-11T11:50:50.789Z,96903.59
2022-12-11T11:53:26.043Z,96898.75
2022-12-11T11:56:06.156Z,96897.38
2022-12-11T11:58:43.715Z,96911.47
2022-12-11T12:01:20.912Z,96906.50
2022-12-11T12:03:49.417Z,96897.13
2022-12-11T12:06:36.278Z,96897.41
2022-12-11T12:09:03.041Z,96894.88
2022-12-11T12:11:58.405Z,96886.22
2022-12-11T12:14:54.732Z,96885.81
2022-12-11T12:17:43.302Z,96894.28
2022-12-11T12:20:28.092Z,96906.44
2022-12-11T12:23:02.669Z,96884.72
2022-12-11T12:25:44.809Z,96902.34
2022-12-11T12:28:26.817Z,96902.75
2022-12-11T12:31:17.495Z,96916.78
2022-12-11T12:34:02.551Z,96922.03
2022-12-11T12:36:47.554Z,96909.34
2022-12-11T12:39:39.194Z,96907.63
2022-12-11T12:42:08.720Z,96908.53
2022-12-11T12:44:58.993Z,96907.13
2022-12-11T12:47:30.752Z,96935.09
2022-12-11T12:50:00.088Z,96935.38
2022-12-11T12:52:29.817Z,96937.41
2022-12-11T12:55:14.900Z,96938.38
2022-12-11T12:57:44.869Z,96934.38
2022-12-11T13:00:13.347Z,96932.69
2022-12-11T13:02:50.939Z,96934.44
2022-12-11T13:05:33.636Z,96931.84
2022-12-11T13:08:04.676Z,96929.34
2022-12-11T13:10:38.021Z,96929.56
2022-12-11T13:13:06.408Z,96931.41
2022-12-11T13:15:35.314Z,96927.00
2022-12-11T13:18:07.418Z,96913.22
2022-12-11T13:20:34.928Z,96931.41
2022-12-11T13:23:07.652Z,96932.28
2022-12-11T13:25:52.268Z,96936.53
2022-12-11T13:28:26.773Z,96947.03
2022-12-11T13:31:00.861Z,96936.13
2022-12-11T13:33:30.470Z,96930.22
2022-12-11T13:36:22.914Z,96930.38
2022-12-11T13:38:59.948Z,96921.88
2022-12-11T13:41:28.805Z,96915.84
2022-12-11T13:43:58.100Z,96917.63
2022-12-11T13:46:29.456Z,96921.91
2022-12-11T14:15:23.290Z,97032.66
2022-12-11T14:17:52.073Z,97038.13
2022-12-11T14:20:24.978Z,97051.44
2022-12-11T14:22:52.099Z,97047.31
2022-12-11T14:25:27.332Z,97057.94
2022-12-11T14:27:56.891Z,97063.22
2022-12-11T14:30:26.702Z,97063.47
2022-12-11T14:32:57.658Z,97061.81
2022-12-11T14:35:29.577Z,97051.56
2022-12-11T14:38:03.773Z,97051.59
2022-12-11T14:40:37.966Z,97058.56
2022-12-11T14:43:12.202Z,97059.41
2022-12-11T14:45:42.296Z,97053.34
2022-12-11T14:48:17.048Z,97064.53
2022-12-11T14:50:53.645Z,97076.66
2022-12-11T14:53:33.556Z,97077.59
2022-12-11T14:56:04.899Z,97081.91
2022-12-11T14:58:37.521Z,97074.19
2022-12-11T15:01:26.606Z,97086.28
2022-12-11T15:04:15.623Z,97094.00
2022-12-11T15:06:47.592Z,97101.84
2022-12-11T15:09:25.549Z,97102.72
2022-12-11T15:11:55.229Z,97102.81
2022-12-11T15:14:24.041Z,97102.03
2022-12-11T15:16:53.032Z,97096.03
2022-12-11T15:19:31.776Z,97090.91
2022-12-11T15:22:04.495Z,97085.66
2022-12-11T15:24:41.804Z,97086.59
2022-12-11T15:27:38.068Z,97093.44
2022-12-11T15:30:29.485Z,97099.56
2022-12-11T15:33:11.385Z,97089.31
2022-12-11T15:35:40.357Z,97091.09
2022-12-11T15:38:25.437Z,97097.06
2022-12-11T15:40:52.601Z,97102.22
2022-12-11T15:43:19.442Z,97091.00
2022-12-11T15:45:46.721Z,97093.59
2022-12-11T15:48:13.596Z,97089.44
2022-12-11T15:50:40.863Z,97089.41
2022-12-11T15:53:07.859Z,97090.28
2022-12-11T15:55:35.190Z,97092.84
2022-12-11T15:58:06.080Z,97107.47
2022-12-11T16:00:33.202Z,97109.19
2022-12-11T16:03:00.066Z,97125.53
2022-12-11T16:05:27.840Z,97136.75
2022-12-11T16:07:59.659Z,97134.16
2022-12-11T16:10:27.203Z,97133.31
2022-12-11T16:12:59.379Z,97135.06
2022-12-11T16:15:27.255Z,97136.75
2022-12-11T16:18:01.253Z,97135.91
2022-12-11T16:20:28.687Z,97114.44
2022-12-11T16:22:55.531Z,97101.56
2022-12-11T16:25:23.157Z,97103.28
2022-12-11T16:27:50.024Z,97110.19
2022-12-11T16:30:17.104Z,97109.34
2022-12-11T16:32:44.373Z,97117.94
2022-12-11T16:35:11.566Z,97109.28
2022-12-11T16:37:38.498Z,97117.81
2022-12-11T16:40:06.714Z,97110.91
2022-12-11T16:42:33.695Z,97112.66
2022-12-11T16:45:12.583Z,97116.09
2022-12-11T16:47:42.725Z,97116.09
2022-12-11T16:50:11.083Z,97113.47
2022-12-11T16:52:38.006Z,97106.69
2022-12-11T16:55:05.555Z,97110.16
2022-12-11T16:57:32.662Z,97116.19
2022-12-11T16:59:59.757Z,97114.44
2022-12-11T17:02:26.579Z,97107.50
2022-12-11T17:04:54.289Z,97102.34
2022-12-11T17:07:21.132Z,97102.31
2022-12-11T17:09:48.388Z,97115.22
2022-12-11T17:12:15.188Z,97123.84
2022-12-11T17:14:42.376Z,97134.09
2022-12-11T17:17:09.344Z,97134.03
2022-12-11T17:19:36.628Z,97134.13
2022-12-11T17:22:04.701Z,97130.72
2022-12-11T17:24:31.791Z,97139.25
2022-12-11T17:26:59.777Z,97146.13
2022-12-11T17:29:26.897Z,97140.94
2022-12-11T17:31:53.796Z,97140.91
2022-12-11T17:34:20.844Z,97128.84
2022-12-11T17:36:47.838Z,97137.63
2022-12-11T17:39:15.172Z,97136.75
2022-12-11T17:41:42.013Z,97132.53
2022-12-11T17:44:09.637Z,97142.84
2022-12-11T17:46:36.539Z,97157.50
2022-12-11T17:49:05.202Z,97156.72
2022-12-11T17:51:31.999Z,97155.03
2022-12-11T17:53:59.234Z,97153.28
2022-12-11T17:56:27.212Z,97142.84
2022-12-11T17:58:54.421Z,97159.25
2022-12-11T18:01:21.678Z,97170.50
2022-12-11T18:03:48.994Z,97170.59
2022-12-11T18:06:16.836Z,97177.50
2022-12-11T18:08:45.700Z,97165.44
2022-12-11T18:11:16.551Z,97156.00
2022-12-11T18:13:45.020Z,97157.78
2022-12-11T18:16:13.562Z,97156.91
2022-12-11T18:18:40.653Z,97157.78
2022-12-11T18:21:07.661Z,97158.72
2022-12-11T18:23:34.820Z,97175.88
2022-12-11T18:26:01.705Z,97195.66
2022-12-11T18:28:31.781Z,97199.06
2022-12-11T18:31:02.345Z,97197.34
2022-12-11T18:33:31.250Z,97197.31
2022-12-11T18:35:58.048Z,97198.16
2022-12-11T18:38:25.197Z,97186.16
2022-12-11T18:40:52.028Z,97178.44
2022-12-11T18:43:19.361Z,97184.34
2022-12-11T18:45:46.382Z,97183.50
2022-12-11T18:48:15.062Z,97185.25
2022-12-11T18:50:49.559Z,97192.09
2022-12-11T18:53:18.592Z,97198.91
2022-12-11T18:55:47.480Z,97213.56
2022-12-11T18:58:18.245Z,97217.91
2022-12-11T19:00:45.882Z,97216.25
2022-12-11T19:03:14.202Z,97204.25
2022-12-11T19:05:43.867Z,97199.97
2022-12-11T19:08:14.350Z,97210.34
2022-12-11T19:10:46.497Z,97206.84
2022-12-11T19:13:14.724Z,97196.50
2022-12-11T19:15:43.474Z,97198.19
2022-12-11T19:18:10.826Z,97203.41
2022-12-11T19:20:49.209Z,97193.94
2022-12-11T19:23:18.398Z,97203.44
2022-12-11T19:25:46.951Z,97203.41
2022-12-11T19:28:14.800Z,97198.25
2022-12-11T19:30:44.045Z,97192.28
2022-12-11T19:33:12.028Z,97189.69
2022-12-11T19:35:39.174Z,97183.63
2022-12-11T19:38:06.440Z,97182.75
2022-12-11T19:40:33.318Z,97189.63
2022-12-11T19:43:00.462Z,97186.19
2022-12-11T19:45:27.245Z,97181.03
2022-12-11T19:47:54.341Z,97184.47
2022-12-11T19:50:21.227Z,97189.63
2022-12-11T19:52:48.354Z,97199.97
2022-12-11T19:55:16.686Z,97207.69
2022-12-11T19:57:43.900Z,97214.56
2022-12-11T20:00:11.495Z,97211.91
2022-12-11T20:02:38.693Z,97223.97
2022-12-11T20:05:05.978Z,97233.34
2022-12-11T20:07:33.115Z,97227.38
2022-12-11T20:10:00.460Z,97235.94
2022-12-11T20:12:28.564Z,97242.75
2022-12-11T20:14:55.527Z,97235.88
2022-12-11T20:17:22.722Z,97219.50
2022-12-11T20:19:49.624Z,97228.19
2022-12-11T20:22:16.733Z,97223.84
2022-12-11T20:24:43.646Z,97221.31
2022-12-11T20:27:12.525Z,97251.41
2022-12-11T20:29:39.914Z,97249.66
2022-12-11T20:32:07.508Z,97245.41
2022-12-11T20:34:34.492Z,97253.06
2022-12-11T20:37:01.624Z,97257.38
2022-12-11T20:39:29.112Z,97247.09
2022-12-11T20:41:56.244Z,97246.16
2022-12-11T20:44:23.126Z,97252.28
2022-12-11T20:46:50.914Z,97264.44
2022-12-11T20:49:17.735Z,97261.88
2022-12-11T20:51:44.895Z,97258.44
2022-12-11T20:54:11.920Z,97262.78
2022-12-11T20:56:39.077Z,97262.78
2022-12-11T20:59:05.962Z,97275.66
2022-12-11T21:01:33.221Z,97281.69
2022-12-11T21:04:00.952Z,97286.94
2022-12-11T21:06:34.460Z,97272.25
2022-12-11T21:09:05.396Z,97274.84
2022-12-11T21:11:32.658Z,97265.38
2022-12-11T21:13:59.882Z,97276.53
2022-12-11T21:16:27.517Z,97266.19
2022-12-11T21:18:56.460Z,97266.94
2022-12-11T21:21:24.537Z,97266.09
2022-12-11T21:23:51.552Z,97266.88
2022-12-11T21:26:19.217Z,97265.19
2022-12-11T21:28:46.201Z,97274.72
2022-12-11T21:31:16.710Z,97278.06
2022-12-11T21:33:44.104Z,97271.16
2022-12-11T21:36:13.216Z,97271.16
2022-12-11T21:38:41.793Z,97270.34
2022-12-11T21:41:10.558Z,97288.47
2022-12-11T21:43:42.741Z,97289.28
2022-12-11T21:46:17.099Z,97290.16
2022-12-11T21:48:44.968Z,97287.56
2022-12-11T21:51:13.851Z,97285.06
2022-12-11T21:53:40.892Z,97291.91
2022-12-11T21:56:10.206Z,97279.00
2022-12-11T21:58:39.410Z,97279.06
2022-12-11T22:01:14.002Z,97287.66
2022-12-11T22:03:41.143Z,97292.00
2022-12-11T22:06:08.633Z,97297.16
2022-12-11T22:08:35.517Z,97295.41
2022-12-11T22:11:02.721Z,97294.56
2022-12-11T22:13:29.602Z,97292.84
2022-12-11T22:15:56.661Z,97290.28
2022-12-11T22:18:27.128Z,97290.28
2022-12-11T22:20:54.836Z,97288.59
2022-12-11T22:23:21.800Z,97293.78
2022-12-11T22:25:49.978Z,97292.09
2022-12-11T22:28:16.791Z,97311.06
2022-12-11T22:30:44.373Z,97298.09
2022-12-11T22:33:11.285Z,97298.09
2022-12-11T22:35:38.441Z,97301.59
2022-12-11T22:38:06.617Z,97292.94
2022-12-11T22:40:34.032Z,97302.41
2022-12-11T22:43:00.833Z,97304.97
2022-12-11T22:45:27.953Z,97305.81
2022-12-11T22:47:54.806Z,97298.09
2022-12-11T22:50:21.931Z,97304.91
2022-12-11T22:52:48.763Z,97303.22
2022-12-11T22:55:15.870Z,97296.34
2022-12-11T22:57:42.655Z,97298.88
2022-12-11T23:00:12.640Z,97295.50
2022-12-11T23:02:39.938Z,97292.09
2022-12-11T23:05:07.735Z,97295.53
2022-12-11T23:07:34.533Z,97291.19
2022-12-11T23:10:02.086Z,97297.25
2022-12-11T23:12:28.981Z,97300.69
2022-12-11T23:14:56.189Z,97306.00
2022-12-11T23:17:23.191Z,97300.75
2022-12-11T23:19:50.314Z,97307.66
2022-12-11T23:22:17.578Z,97314.56
2022-12-11T23:24:44.734Z,97311.16
2022-12-11T23:27:11.558Z,97315.44
2022-12-11T23:29:39.274Z,97330.91
2022-12-11T23:32:06.056Z,97315.44
2022-12-11T23:34:33.526Z,97322.38
2022-12-11T23:37:00.503Z,97309.44
2022-12-11T23:39:27.896Z,97311.16
2022-12-11T23:41:54.687Z,97313.69
2022-12-11T23:44:21.787Z,97312.81
2022-12-11T23:46:48.572Z,97315.44
2022-12-11T23:49:15.626Z,97313.75
2022-12-11T23:51:42.561Z,97318.00
2022-12-11T23:54:09.671Z,97328.31
2022-12-11T23:56:36.517Z,97327.47
2022-12-11T23:59:03.651Z,97331.75
